WetterOnline ( https://www.wetteronline.de )

Wetter aktuell Carpin

Aktuelles Wetter: Feldberg (115m)

6-stündlich | Neueste Meldungen
Ortszeit Temperatur Wetter
Sa, 24.08. 8:00 18.0° C fast wolkenlos
Sa, 24.08. 2:00 13.5° C fast wolkenlos
Fr, 23.08. 20:00 21.2° C wolkenlos
Fr, 23.08. 14:00 26.5° C wolkenlos
Fr, 23.08. 8:00 16.7° C leicht bewölkt
Fr, 23.08. 2:00 15.1° C fast wolkenlos
Do, 22.08. 20:00 21.8° C fast wolkenlos
Do, 22.08. 14:00 24.3° C fast wolkenlos
Ortszeit Temperatur Wetter
Sa, 24.08. 11:30 25.4° C fast wolkenlos
Sa, 24.08. 11:20 25.4° C fast wolkenlos
Sa, 24.08. 11:10 25.6° C wolkenlos
Sa, 24.08. 11:00 24.6° C wolkenlos
Sa, 24.08. 10:50 24.6° C wolkenlos
Sa, 24.08. 10:40 24.3° C fast wolkenlos
Sa, 24.08. 10:30 23.6° C leicht bewölkt
Sa, 24.08. 10:00 22.8° C leicht bewölkt
Sa, 24.08. 9:30 21.9° C leicht bewölkt
Sa, 24.08. 9:00 21.1° C fast wolkenlos
Sa, 24.08. 8:30 20.0° C leicht bewölkt
Ortszeit Relative Feuchte Sichtweite
Sa, 24.08. 8:00 76% 18 km
Sa, 24.08. 2:00 88% 19 km
Fr, 23.08. 20:00 55% 26 km
Fr, 23.08. 14:00 33% 28 km
Fr, 23.08. 8:00 75% 20 km
Fr, 23.08. 2:00 74% 26 km
Do, 22.08. 20:00 43% 27 km
Do, 22.08. 14:00 34% 25 km
Ortszeit Relative Feuchte Sichtweite
Sa, 24.08. 11:30 42% 21 km
Sa, 24.08. 11:20 42% -
Sa, 24.08. 11:10 45% -
Sa, 24.08. 11:00 47% 27 km
Sa, 24.08. 10:50 47% -
Sa, 24.08. 10:40 48% -
Sa, 24.08. 10:30 50% 22 km
Sa, 24.08. 10:00 56% 15 km
Sa, 24.08. 9:30 59% 16 km
Sa, 24.08. 9:00 59% 23 km
Sa, 24.08. 8:30 69% 25 km
Ortszeit Niederschlagsmenge Niederschlagsart
Sa, 24.08. 8:00 0.0 l/m2 in 12 Std. -
Sa, 24.08. 2:00 0.0 l/m2 in 6 Std. -
Fr, 23.08. 20:00 0.0 l/m2 in 12 Std. -
Fr, 23.08. 14:00 0.0 l/m2 in 6 Std. -
Fr, 23.08. 8:00 0.0 l/m2 in 12 Std. -
Fr, 23.08. 2:00 0.0 l/m2 in 6 Std. -
Do, 22.08. 20:00 0.0 l/m2 in 12 Std. -
Do, 22.08. 14:00 0.0 l/m2 in 6 Std. -
Ortszeit Niederschlagsmenge Niederschlagsart
Sa, 24.08. 11:30 0.0 l/m2 in 1 Std. -
Sa, 24.08. 11:20 keine Meldung -
Sa, 24.08. 11:10 keine Meldung -
Sa, 24.08. 11:00 0.0 l/m2 in 1 Std. -
Sa, 24.08. 10:50 keine Meldung -
Sa, 24.08. 10:40 keine Meldung -
Sa, 24.08. 10:30 0.0 l/m2 in 1 Std. -
Sa, 24.08. 10:00 0.0 l/m2 in 1 Std. -
Sa, 24.08. 9:30 0.0 l/m2 in 1 Std. -
Sa, 24.08. 9:00 0.0 l/m2 in 1 Std. -
Sa, 24.08. 8:30 0.0 l/m2 in 1 Std. -
Ortszeit Stärke Spitze Richtung
km/h Bft. km/h Grad Sektor
Sa, 24.08. 8:00 4 1 7 360° N
Sa, 24.08. 2:00 6 1 19 50° NO
Fr, 23.08. 20:00 4 1 22 340° N
Fr, 23.08. 14:00 7 2 25 150° SO
Fr, 23.08. 8:00 7 2 11 170° S
Fr, 23.08. 2:00 4 1 7 160° S
Do, 22.08. 20:00 4 1 32 170° S
Do, 22.08. 14:00 11 2 29 190° S
Ortszeit Stärke Spitze Richtung
km/h Bft. km/h Grad Sektor
Sa, 24.08. 11:30 17 3 28 100° O
Sa, 24.08. 11:20 17 3 - 100° O
Sa, 24.08. 11:10 13 3 - 100° O
Sa, 24.08. 11:00 13 3 19 100° O
Sa, 24.08. 10:50 13 3 - 100° O
Sa, 24.08. 10:40 11 2 - 80° O
Sa, 24.08. 10:30 9 2 15 90° O
Sa, 24.08. 10:00 9 2 15 120° SO
Sa, 24.08. 9:30 9 2 11 100° O
Sa, 24.08. 9:00 7 2 11 100° O
Sa, 24.08. 8:30 6 1 7 100° O
Ortszeit Untergrenze Bedeckung Gattung
total tief tief mittel hoch
Sa, 24.08. 8:00 7500 m 2/8 0/8 - - -
Sa, 24.08. 2:00 8400 m 1/8 0/8 - - -
Fr, 23.08. 20:00 - 0/8 0/8 - - -
Fr, 23.08. 14:00 - 0/8 0/8 - - -
Fr, 23.08. 8:00 8400 m 3/8 0/8 - - -
Fr, 23.08. 2:00 8400 m 2/8 0/8 - - -
Do, 22.08. 20:00 8100 m 1/8 0/8 - - -
Do, 22.08. 14:00 9000 m 2/8 0/8 - - -
Ortszeit Bedeckungsgrad in Achtel und Wolkenuntergrenze
Sa, 24.08. 11:30 1(8100m)
Sa, 24.08. 11:20 1(8100m)
Sa, 24.08. 11:10 keine Wolken
Sa, 24.08. 11:00 keine Wolken
Sa, 24.08. 10:50 keine Wolken
Sa, 24.08. 10:40 1(8400m)
Sa, 24.08. 10:30 1(7800m) 6(8400m)
Sa, 24.08. 10:00 7(8700m) 5(8700m)
Sa, 24.08. 9:30 4(8400m)
Sa, 24.08. 9:00 2(8700m)
Sa, 24.08. 8:30 3(8400m) 4(9000m)
Ortszeit Luftdruck NN (hPa) Tendenz (hPa in 3 Std.)
Sa, 24.08. 8:00 1026 + 0,1
Sa, 24.08. 2:00 1026 0,0
Fr, 23.08. 20:00 1025 - 0,5
Fr, 23.08. 14:00 1026 - 1,0
Fr, 23.08. 8:00 1027 + 0,5
Fr, 23.08. 2:00 1027 + 0,1
Do, 22.08. 20:00 1025 - 0,7
Do, 22.08. 14:00 1027 - 1,3
Ortszeit Luftdruck NN (hPa) Tendenz (hPa in 3 Std.)
Sa, 24.08. 11:30 1026 0,0
Sa, 24.08. 11:20 1026 keine Meldung
Sa, 24.08. 11:10 1026 keine Meldung
Sa, 24.08. 11:00 1026 + 0,3
Sa, 24.08. 10:50 1026 keine Meldung
Sa, 24.08. 10:40 1026 keine Meldung
Sa, 24.08. 10:30 1026 + 0,5
Sa, 24.08. 10:00 1026 + 0,5
Sa, 24.08. 9:30 1026 + 0,4
Sa, 24.08. 9:00 1026 + 0,3
Sa, 24.08. 8:30 1026 + 0,3
Ortszeit Schneehöhe (cm)
Sa, 24.08. 8:00 -
Sa, 24.08. 2:00 -
Fr, 23.08. 20:00 -
Fr, 23.08. 14:00 -
Fr, 23.08. 8:00 -
Fr, 23.08. 2:00 -
Do, 22.08. 20:00 -
Do, 22.08. 14:00 -
Ortszeit Schneehöhe (cm)
Sa, 24.08. 11:30 -
Sa, 24.08. 11:20 -
Sa, 24.08. 11:10 -
Sa, 24.08. 11:00 -
Sa, 24.08. 10:50 -
Sa, 24.08. 10:40 -
Sa, 24.08. 10:30 -
Sa, 24.08. 10:00 -
Sa, 24.08. 9:30 -
Sa, 24.08. 9:00 -
Sa, 24.08. 8:30 -
Link zu dieser Seite / Seite empfehlen

Das Wetter in ...